Skip Navigation Links Skip Navigation Links

Current Weather

Oslo / Fornebu, Norway

For information only: do not use for flight planning or navigation.
Latest weather
Observation time Monday, November 29, 2021 9:20 PM CET
Local time Monday, November 29, 2021 9:43 PM CET
Flight conditions Conditions unknown
Winds
Wind direction North (350°)
Wind speed 63 mph
Wind gusting to 75 mph
Sky condition
Ceiling 2,800 ft. broken clouds
Cloud layer broken clouds 2,800 ft.
Temperature 41°F
Dewpoint 30°F
Altimeter 29.15 in.Hg
Derived measurements
Relative humidity 65%
Wind chill 26°F
Density altitude -219 ft.
Remarks
Fully automated report.
METAR ENFB 292020Z AUTO 35055G65KT 9999NDV BKN028/// 05/M01 Q0987 W///S5

Settings

Location code

InnerDrive.Weather 4.0.6770.0 Release CLR 4.0.30319.42000
Copyright ©2018 Inner Drive Technology. All rights reserved. Portions Copyright ©1986-2018 David Braverman.

Find weather

Site navigation


Skip Navigation Links

Place info

Page info

PayPal - The safer, easier way to pay online!

Return home.

Copyright ©2021 Inner Drive Technology. Purveyors of fine, hand-crafted computer software. Page printed 2021-11-29T20:43:37 UTC.